Time;durP1;ratioP1;P1;durP2;ratioP2;P2;SDS_P1;SDS_P2;PMS_P1;PMS_P2;Temp;Humidity;BMP_temperature;BMP_pressure;BME280_temperature;BME280_humidity;BME280_pressure;Samples;Min_cycle;Max_cycle;Signal;HPM_P1;HPM_P2
2022/12/29 00:00:04;;;;;;;6.75;2.35;;;;;;;2.65;69.39;99348.84;4855038;29;20030;-93
2022/12/29 00:02:45;;;;;;;8.02;2.92;;;;;;;2.53;68.76;99330.97;4880785;29;20101;-94
2022/12/29 00:05:11;;;;;;;7.75;3.05;;;;;;;3.02;67.80;99362.31;4847248;29;20037;-93
2022/12/29 00:07:38;;;;;;;5.13;2.33;;;;;;;2.65;67.22;99311.06;4833273;29;20038;-93
2022/12/29 00:10:06;;;;;;;6.03;2.25;;;;;;;2.40;67.00;99311.72;4832982;29;20117;-93
2022/12/29 00:15:36;;;;;;;3.47;2.10;;;;;;;2.64;66.97;99355.31;4832818;29;20041;-92
2022/12/29 00:18:02;;;;;;;9.48;2.20;;;;;;;2.17;67.43;99310.22;4843819;29;20042;-92
2022/12/29 00:37:05;;;;;;;7.60;1.73;;;;;;;2.56;63.65;99381.72;4846367;29;20074;-93
2022/12/29 00:45:03;;;;;;;4.75;1.55;;;;;;;1.61;63.99;99297.84;4862844;29;20049;-94
2022/12/29 00:47:30;;;;;;;4.43;1.50;;;;;;;1.78;64.35;99340.06;4819463;29;20424;-94
2022/12/29 00:49:56;;;;;;;9.82;1.70;;;;;;;2.08;64.21;99382.66;4812322;29;20064;-93
2022/12/29 00:52:23;;;;;;;9.75;1.95;;;;;;;2.09;64.00;99368.13;4799445;29;20049;-94
2022/12/29 00:54:49;;;;;;;3.72;1.85;;;;;;;1.95;64.23;99343.44;4799309;29;20509;-95
2022/12/29 00:57:15;;;;;;;9.20;1.75;;;;;;;2.12;63.46;99343.34;4803443;29;20073;-94
2022/12/29 00:59:42;;;;;;;8.27;2.05;;;;;;;2.41;63.87;99387.00;4807975;29;20075;-95
2022/12/29 01:02:10;;;;;;;8.07;1.88;;;;;;;2.33;63.83;99374.78;4807770;29;20042;-93
2022/12/29 01:04:37;;;;;;;8.68;2.10;;;;;;;1.96;63.83;99328.91;4815672;29;20046;-94
2022/12/29 01:07:03;;;;;;;15.70;2.20;;;;;;;1.70;64.25;99303.59;4812077;29;20058;-93
2022/12/29 01:12:44;;;;;;;6.15;2.10;;;;;;;2.45;64.15;99425.06;4813795;29;20287;-93
2022/12/29 01:15:14;;;;;;;8.50;1.83;;;;;;;1.87;64.08;99365.47;4797700;29;20042;-93
2022/12/29 01:17:41;;;;;;;9.05;2.45;;;;;;;1.79;63.69;99365.94;4799178;29;20046;-93
2022/12/29 01:20:08;;;;;;;8.47;1.87;;;;;;;1.67;63.75;99360.69;4811104;29;20060;-93
2022/12/29 01:22:34;;;;;;;;;;;;;;;2.11;63.66;99423.41;4802690;29;20048;-93
2022/12/29 01:25:03;;;;;;;8.57;1.75;;;;;;;1.70;63.67;99368.28;4796892;29;20395;-93
2022/12/29 01:27:29;;;;;;;6.10;1.80;;;;;;;1.50;63.63;99341.94;4804715;29;20152;-94
2022/12/29 01:29:55;;;;;;;5.10;1.70;;;;;;;1.83;63.14;99373.25;4814777;29;20056;-93
2022/12/29 01:32:21;;;;;;;8.23;1.70;;;;;;;1.67;62.72;99343.72;4807741;29;20040;-91
2022/12/29 01:34:49;;;;;;;3.90;1.90;;;;;;;1.66;62.89;99351.00;4821826;29;20045;-92
2022/12/29 01:37:18;;;;;;;;;;;;;;;2.27;62.29;99440.56;4816978;29;20202;-91
2022/12/29 01:39:45;;;;;;;6.72;1.70;;;;;;;1.71;62.56;99377.97;4823758;29;19924;-92
2022/12/29 01:42:18;;;;;;;4.55;1.60;;;;;;;2.05;63.13;99434.41;4823023;29;20041;-96
2022/12/29 01:45:03;;;;;;;6.43;1.85;;;;;;;1.81;63.21;99407.72;4835955;29;20041;-93
2022/12/29 01:51:17;;;;;;;8.55;1.80;;;;;;;1.62;62.85;99368.72;4847300;29;20046;-94
2022/12/29 01:53:45;;;;;;;4.90;1.77;;;;;;;1.78;62.57;99410.13;4818043;29;20061;-94
2022/12/29 01:56:26;;;;;;;4.55;1.70;;;;;;;1.30;63.31;99349.78;4818097;29;20042;-94
2022/12/29 01:59:00;;;;;;;6.30;1.83;;;;;;;1.37;62.71;99334.25;4819224;29;20042;-93
2022/12/29 02:01:32;;;;;;;5.28;1.65;;;;;;;1.42;63.29;99342.34;4819987;29;20501;-94
2022/12/29 02:04:01;;;;;;;8.20;2.05;;;;;;;1.37;63.39;99347.72;4816275;29;20052;-93
2022/12/29 02:06:42;;;;;;;5.53;1.80;;;;;;;1.76;63.55;99401.50;4829752;29;20042;-94
2022/12/29 02:09:09;;;;;;;7.78;2.10;;;;;;;1.25;63.68;99342.44;4815590;29;20054;-94
2022/12/29 02:11:36;;;;;;;8.50;2.17;;;;;;;1.99;63.43;99440.81;4799551;29;20037;-93
2022/12/29 02:14:10;;;;;;;9.68;2.33;;;;;;;1.88;63.40;99407.53;4814956;29;20544;-94
2022/12/29 02:17:13;;;;;;;15.18;3.28;;;;;;;2.14;63.12;99442.84;4800154;29;20489;-94
2022/12/29 02:19:52;;;;;;;7.15;2.20;;;;;;;2.13;63.24;99443.94;4802378;29;20052;-93
2022/12/29 02:22:40;;;;;;;8.32;2.10;;;;;;;1.67;63.44;99376.06;4823694;29;20046;-92
2022/12/29 02:28:10;;;;;;;8.35;2.53;;;;;;;1.81;62.71;99385.34;5124251;27;20378;-93
2022/12/29 02:30:43;;;;;;;13.90;3.13;;;;;;;1.57;63.03;99368.66;5063315;28;20032;-95
2022/12/29 02:33:34;;;;;;;6.80;2.28;;;;;;;1.87;63.28;99416.69;5078417;28;20282;-92
2022/12/29 02:36:11;;;;;;;7.30;2.55;;;;;;;1.96;63.43;99458.31;5075660;28;20062;-92
2022/12/29 02:38:55;;;;;;;9.57;2.50;;;;;;;2.06;63.63;99453.03;5043347;28;20032;-92
2022/12/29 02:41:32;;;;;;;10.43;2.50;;;;;;;1.59;63.30;99386.22;5043198;28;20098;-93
2022/12/29 02:44:14;;;;;;;8.38;3.10;;;;;;;1.61;63.10;99364.41;5057134;27;20091;-94
2022/12/29 02:46:52;;;;;;;14.38;2.55;;;;;;;1.70;62.67;99367.47;5031030;23;20064;-93
2022/12/29 02:49:41;;;;;;;8.98;2.90;;;;;;;2.22;62.88;99455.88;5105624;23;20080;-95
2022/12/29 02:52:33;;;;;;;11.20;2.72;;;;;;;1.50;63.04;99411.97;4995385;28;20133;-94
2022/12/29 02:54:59;;;;;;;10.32;2.45;;;;;;;1.59;62.87;99399.69;4997246;28;20034;-95
2022/12/29 02:57:30;;;;;;;7.68;2.88;;;;;;;2.24;62.65;99469.94;5003311;28;20045;-92
2022/12/29 03:00:07;;;;;;;10.18;2.95;;;;;;;2.11;62.54;99439.59;4986275;28;20026;-93
2022/12/29 03:03:14;;;;;;;10.60;3.00;;;;;;;2.31;61.92;99438.97;4994786;28;20045;-94
2022/12/29 03:05:58;;;;;;;;;;;;;;;2.49;62.01;99469.38;5014931;28;20042;-95
2022/12/29 03:08:59;;;;;;;14.82;2.80;;;;;;;2.29;62.14;99462.69;5013130;28;20351;-94
2022/12/29 03:17:56;;;;;;;7.30;2.72;;;;;;;1.80;62.45;99421.47;5111659;23;20034;-93
2022/12/29 03:20:55;;;;;;;13.88;3.03;;;;;;;1.93;62.70;99421.06;4974022;28;20060;-94
2022/12/29 03:23:51;;;;;;;6.93;2.10;;;;;;;2.04;62.46;99484.00;4962845;23;20037;-94
2022/12/29 03:26:20;;;;;;;13.07;3.10;;;;;;;2.11;62.25;99485.44;4938103;28;20048;-94
2022/12/29 03:28:55;;;;;;;8.38;3.03;;;;;;;1.80;62.18;99432.25;5006224;23;20050;-94
2022/12/29 03:31:26;;;;;;;9.35;2.90;;;;;;;1.85;62.03;99462.78;5026013;23;20039;-93
2022/12/29 03:33:56;;;;;;;10.50;3.67;;;;;;;1.55;62.38;99438.97;4979934;28;20035;-95
2022/12/29 03:39:31;;;;;;;8.85;2.75;;;;;;;1.56;62.70;99445.19;5039086;23;20030;-92
2022/12/29 03:46:02;;;;;;;8.95;2.90;;;;;;;1.63;63.23;99505.09;5028552;28;20052;-91
2022/12/29 03:48:30;;;;;;;8.82;3.17;;;;;;;1.46;63.64;99478.19;4972333;28;20085;-91
2022/12/29 03:50:58;;;;;;;;;;;;;;;1.61;63.33;99510.69;4988796;28;20038;-93
2022/12/29 03:53:50;;;;;;;9.93;2.58;;;;;;;1.37;63.00;99493.13;4988570;28;19954;-92
2022/12/29 03:56:21;;;;;;;8.95;2.40;;;;;;;1.24;62.66;99451.22;4955134;28;20588;-92
2022/12/29 03:58:52;;;;;;;13.13;3.28;;;;;;;1.28;62.30;99444.28;4991929;28;20042;-93
2022/12/29 04:01:57;;;;;;;10.13;2.47;;;;;;;1.25;62.31;99460.91;4996135;28;20120;-91
2022/12/29 04:04:24;;;;;;;8.73;2.80;;;;;;;1.39;62.51;99485.63;4987581;28;20051;-94
2022/12/29 04:06:56;;;;;;;7.55;2.75;;;;;;;1.68;62.99;99525.88;4962706;28;20033;-92
2022/12/29 04:09:47;;;;;;;14.25;3.17;;;;;;;1.72;62.07;99527.00;5037037;23;20050;-94
2022/12/29 04:13:17;;;;;;;8.90;3.13;;;;;;;1.74;62.34;99525.69;5011685;28;20061;-90
2022/12/29 04:15:54;;;;;;;11.48;3.35;;;;;;;1.68;61.92;99534.78;4974176;28;20088;-91
2022/12/29 04:18:47;;;;;;;15.18;3.08;;;;;;;1.63;62.16;99526.63;4972589;28;20081;-90
2022/12/29 04:21:14;;;;;;;9.65;2.58;;;;;;;1.35;62.09;99471.81;4975739;28;20130;-91
2022/12/29 04:23:43;;;;;;;9.90;3.40;;;;;;;1.21;61.71;99435.56;4963504;28;20031;-92
2022/12/29 04:26:12;;;;;;;9.60;3.15;;;;;;;1.45;62.29;99502.66;5009595;28;20030;-93
2022/12/29 04:28:59;;;;;;;12.20;3.00;;;;;;;1.11;62.16;99467.72;4999219;28;20057;-92
2022/12/29 04:32:00;;;;;;;13.43;2.97;;;;;;;0.75;62.43;99416.06;5010308;28;20044;-93
2022/12/29 04:34:31;;;;;;;11.90;3.30;;;;;;;1.39;62.33;99526.84;4976682;23;20071;-93
2022/12/29 04:36:59;;;;;;;12.27;2.90;;;;;;;0.69;62.68;99425.91;4919901;29;20090;-95
2022/12/29 04:39:27;;;;;;;9.48;3.88;;;;;;;1.27;62.35;99501.88;4927543;29;20028;-90
2022/12/29 04:41:53;;;;;;;9.65;2.80;;;;;;;1.34;62.54;99542.13;4940055;29;20050;-91
2022/12/29 04:44:43;;;;;;;15.55;3.50;;;;;;;1.25;62.90;99533.63;4980571;28;20034;-89
2022/12/29 04:47:12;;;;;;;13.85;3.58;;;;;;;0.84;63.32;99498.00;4977753;28;20039;-93
2022/12/29 04:50:01;;;;;;;9.05;2.85;;;;;;;1.20;62.42;99505.81;4915019;29;20048;-86
2022/12/29 04:52:33;;;;;;;7.35;2.95;;;;;;;1.22;62.61;99507.19;4946278;28;20067;-91
2022/12/29 04:55:04;;;;;;;12.73;3.13;;;;;;;0.94;62.50;99484.72;4948866;29;20031;-92
2022/12/29 04:57:30;;;;;;;8.85;2.80;;;;;;;1.25;62.79;99559.75;4942152;29;20040;-93
2022/12/29 05:00:05;;;;;;;7.28;3.13;;;;;;;0.53;62.80;99442.06;4946955;29;20046;-93
2022/12/29 05:02:38;;;;;;;12.90;3.90;;;;;;;0.97;62.17;99478.03;4943818;29;20047;-92
2022/12/29 05:05:07;;;;;;;9.85;2.72;;;;;;;0.89;62.28;99505.34;4950546;28;20038;-91
2022/12/29 05:07:45;;;;;;;12.15;3.10;;;;;;;0.88;62.41;99472.22;4959399;28;20067;-93
2022/12/29 05:10:12;;;;;;;12.82;3.63;;;;;;;0.90;62.48;99474.69;4960396;28;20094;-93
2022/12/29 05:12:51;;;;;;;16.75;3.53;;;;;;;0.97;62.39;99504.94;4932591;29;20056;-92
2022/12/29 05:15:18;;;;;;;12.48;3.20;;;;;;;1.50;61.75;99568.22;4929728;29;20050;-94
2022/12/29 05:18:31;;;;;;;9.47;3.40;;;;;;;1.54;61.39;99566.66;5022854;23;20063;-96
2022/12/29 05:21:10;;;;;;;11.43;3.08;;;;;;;0.87;61.10;99472.50;4984255;28;20023;-94
2022/12/29 05:27:56;;;;;;;14.53;3.00;;;;;;;1.43;62.08;99572.16;5035835;23;20055;-93
2022/12/29 05:31:16;;;;;;;53.45;14.70;;;;;;;1.24;62.15;99568.91;5169222;23;20058;-93
2022/12/29 05:34:28;;;;;;;32.15;8.98;;;;;;;1.21;61.99;99572.88;4983239;23;20054;-93
2022/12/29 05:37:25;;;;;;;20.08;6.03;;;;;;;1.15;62.04;99581.94;4969735;23;20113;-93
2022/12/29 05:40:15;;;;;;;20.52;8.02;;;;;;;0.91;61.69;99546.28;4937628;28;20055;-92
2022/12/29 05:46:52;;;;;;;27.02;8.80;;;;;;;0.97;62.38;99588.38;5017633;23;20062;-95
2022/12/29 05:49:56;;;;;;;302.08;62.40;;;;;;;0.44;62.21;99490.06;4921281;29;20056;-95
2022/12/29 13:06:37;;;;;;;13.88;7.68;;;;;;;4.51;55.32;99632.28;4749590;30;20057;-96
2022/12/29 13:23:08;;;;;;;21.50;8.43;;;;;;;3.27;56.59;99534.50;4793121;30;20068;-93
2022/12/29 13:28:37;;;;;;;20.55;8.98;;;;;;;3.84;56.81;99639.25;4788421;24;20059;-93
2022/12/29 16:01:36;;;;;;;30.40;11.20;;;;;;;1.73;63.80;99507.09;4970293;24;20059;-93
2022/12/29 16:04:12;;;;;;;32.67;12.05;;;;;;;1.92;64.49;99551.56;4818176;29;20038;-94
2022/12/29 16:06:56;;;;;;;29.00;11.82;;;;;;;2.31;64.18;99627.78;4819675;29;20039;-93
2022/12/29 16:09:46;;;;;;;34.55;13.60;;;;;;;2.15;63.89;99587.41;4825685;29;20143;-93
2022/12/29 16:15:14;;;;;;;36.83;13.15;;;;;;;2.00;64.03;99574.56;4802603;29;20039;-93
2022/12/29 16:33:28;;;;;;;37.78;13.90;;;;;;;1.95;64.94;99596.84;4714631;30;20052;-94
2022/12/29 16:41:11;;;;;;;;;;;;;;;;;;;;;
2022/12/29 16:44:43;;;;;;;34.25;12.95;;;;;;;1.36;65.27;99510.38;4728753;30;20516;-94
2022/12/29 16:48:19;;;;;;;37.65;14.20;;;;;;;1.13;65.36;99497.91;4749243;30;20555;-92
2022/12/29 16:50:55;;;;;;;37.03;13.55;;;;;;;1.75;66.03;99601.97;4727996;30;20068;-94
2022/12/29 16:53:53;;;;;;;27.90;14.20;;;;;;;1.06;66.17;99497.25;4826127;24;20077;-92
2022/12/29 16:57:27;;;;;;;27.08;11.95;;;;;;;1.30;66.03;99532.91;4828069;29;20253;-93
2022/12/29 17:01:39;;;;;;;;;;;;;;;;;;;;;
2022/12/29 17:08:27;;;;;;;;;;;;;;;;;;;;;
2022/12/29 17:14:52;;;;;;;37.20;12.77;;;;;;;1.98;65.70;99593.66;4830667;29;20054;-93
2022/12/29 17:17:43;;;;;;;28.35;12.35;;;;;;;1.18;65.82;99488.03;4831677;29;20053;-94
2022/12/29 17:20:29;;;;;;;32.65;11.68;;;;;;;1.57;65.64;99531.13;4827188;29;20056;-91
2022/12/29 17:43:17;;;;;;;31.97;12.37;;;;;;;1.67;67.16;99580.84;4720544;30;20056;-95
2022/12/29 17:47:06;;;;;;;32.85;13.93;;;;;;;0.98;67.26;99474.25;4885138;24;20077;-94
2022/12/29 17:49:33;;;;;;;31.38;13.43;;;;;;;1.51;66.79;99548.28;4823522;29;20144;-94
2022/12/29 18:43:01;;;;;;;33.75;15.13;;;;;;;1.48;67.83;99559.56;5508912;24;20047;-95
2022/12/29 18:45:41;;;;;;;28.00;14.18;;;;;;;1.49;68.17;99563.91;4769642;29;20066;-92
2022/12/29 18:48:28;;;;;;;50.28;16.67;;;;;;;1.53;68.17;99567.72;4780113;29;20070;-92
2022/12/29 18:51:03;;;;;;;41.03;15.50;;;;;;;0.86;67.81;99452.84;4793161;29;20055;-92
2022/12/29 18:53:55;;;;;;;;;;;;;;;;;;;;;
2022/12/29 18:56:54;;;;;;;25.55;12.70;;;;;;;1.34;67.83;99509.78;4750880;29;20065;-92
2022/12/29 18:59:20;;;;;;;35.15;14.40;;;;;;;1.20;67.71;99493.19;4776786;29;20047;-90
2022/12/29 19:01:53;;;;;;;39.60;14.88;;;;;;;1.59;67.89;99544.34;4786578;29;20046;-91
2022/12/29 19:04:27;;;;;;;32.97;14.30;;;;;;;1.58;67.93;99546.22;4770794;29;20076;-92
2022/12/29 19:07:03;;;;;;;28.25;13.82;;;;;;;1.23;67.92;99473.03;4795197;29;20157;-91
2022/12/29 19:09:30;;;;;;;42.08;14.75;;;;;;;1.48;67.52;99505.69;4793457;29;20047;-92
2022/12/29 19:12:12;;;;;;;43.92;14.30;;;;;;;1.01;67.55;99436.09;4785432;30;20011;-94
2022/12/29 19:14:48;;;;;;;40.83;14.82;;;;;;;0.97;67.65;99434.97;4753389;30;20563;-93
2022/12/29 19:17:15;;;;;;;48.88;16.02;;;;;;;1.31;67.76;99518.38;4746001;30;20523;-91
2022/12/29 19:19:44;;;;;;;36.28;15.45;;;;;;;0.68;68.06;99426.97;4735233;30;20052;-93
2022/12/29 19:22:14;;;;;;;46.17;14.05;;;;;;;0.73;68.48;99438.88;4762562;30;20060;-93
2022/12/29 19:24:46;;;;;;;36.10;14.68;;;;;;;0.72;68.84;99439.94;4752003;30;20047;-92
2022/12/29 19:27:12;;;;;;;32.38;14.35;;;;;;;0.61;69.22;99426.34;4740079;30;20064;-92
2022/12/29 19:29:40;;;;;;;38.63;14.75;;;;;;;0.94;69.19;99473.13;4747763;30;20082;-92
2022/12/29 19:32:10;;;;;;;39.80;15.20;;;;;;;0.99;68.80;99470.50;4746413;30;20039;-92
2022/12/29 19:34:38;;;;;;;32.10;14.38;;;;;;;1.14;68.86;99513.00;4746993;30;20051;-93
2022/12/29 19:37:04;;;;;;;;;;;;;;;1.50;69.09;99557.44;4745753;30;20048;-92
2022/12/29 19:39:30;;;;;;;34.33;14.27;;;;;;;1.54;68.60;99553.19;4743019;30;20028;-92
2022/12/29 19:41:58;;;;;;;43.97;17.63;;;;;;;0.87;68.02;99422.16;4763271;30;20083;-94
2022/12/29 19:44:54;;;;;;;34.13;16.05;;;;;;;1.03;67.99;99441.25;4800735;30;20592;-96
2022/12/29 19:50:22;;;;;;;52.50;18.67;;;;;;;1.14;67.66;99427.66;4817934;29;20062;-95
2022/12/29 19:53:15;;;;;;;54.63;21.33;;;;;;;1.02;67.50;99404.59;4815696;29;20050;-95
2022/12/29 19:56:12;;;;;;;41.05;18.02;;;;;;;1.12;67.54;99416.31;4809406;29;20091;-95
2022/12/29 19:58:56;;;;;;;;;;;;;;;1.86;67.88;99533.69;4787898;29;20055;-92
2022/12/29 20:01:26;;;;;;;36.88;16.60;;;;;;;1.42;67.43;99458.19;4772652;29;19928;-93
2022/12/29 20:03:52;;;;;;;37.78;16.90;;;;;;;1.22;67.25;99421.03;4784863;29;20047;-94
2022/12/29 20:06:26;;;;;;;41.95;15.88;;;;;;;1.70;67.23;99492.22;4771941;29;20091;-94
2022/12/29 20:09:24;;;;;;;38.20;17.70;;;;;;;1.78;67.17;99516.03;4781483;29;20059;-94
2022/12/29 20:12:12;;;;;;;50.65;22.10;;;;;;;1.91;67.58;99532.91;4825027;24;20078;-93
2022/12/29 20:14:40;;;;;;;59.50;23.35;;;;;;;1.91;67.62;99535.59;4794973;29;20058;-94
2022/12/29 20:17:07;;;;;;;55.13;24.10;;;;;;;1.47;67.63;99468.22;4840590;29;20110;-94
2022/12/29 20:19:39;;;;;;;51.20;22.90;;;;;;;1.11;68.08;99412.00;4821074;29;20091;-93
2022/12/29 20:22:31;;;;;;;54.05;23.02;;;;;;;1.93;67.88;99530.78;4751643;30;20050;-93
2022/12/29 20:24:59;;;;;;;51.45;21.70;;;;;;;1.54;67.39;99452.69;4804574;29;20054;-92
2022/12/29 20:27:28;;;;;;;46.85;19.80;;;;;;;1.85;67.26;99491.59;4813041;29;20100;-94
2022/12/29 20:29:54;;;;;;;41.15;17.40;;;;;;;1.69;67.13;99479.00;4779066;30;20047;-94
2022/12/29 20:32:24;;;;;;;41.25;18.75;;;;;;;1.55;67.24;99451.63;4747886;30;20067;-93
2022/12/29 20:34:52;;;;;;;36.65;17.10;;;;;;;1.92;67.27;99486.84;4761411;29;20050;-94
2022/12/29 20:37:24;;;;;;;40.13;17.15;;;;;;;1.83;67.07;99481.06;4829576;29;20114;-95
2022/12/29 20:40:14;;;;;;;35.40;17.05;;;;;;;1.93;67.06;99506.53;4812773;29;20058;-96
2022/12/29 20:43:25;;;;;;;39.75;15.95;;;;;;;2.16;67.01;99527.03;4766498;30;20127;-94
2022/12/29 20:46:14;;;;;;;36.33;16.13;;;;;;;1.55;66.66;99413.91;4810476;29;20058;-94
2022/12/29 21:16:04;;;;;;;38.95;15.20;;;;;;;2.32;65.90;99458.69;4771215;30;20068;-94
2022/12/29 21:18:31;;;;;;;40.03;16.30;;;;;;;1.80;65.94;99373.78;4771971;30;20068;-94
2022/12/29 21:21:40;;;;;;;34.65;15.38;;;;;;;2.55;65.66;99482.66;4764186;30;20048;-93
2022/12/29 21:24:13;;;;;;;43.05;15.65;;;;;;;2.23;65.67;99436.75;4742738;30;20140;-94
2022/12/29 21:26:47;;;;;;;35.05;15.25;;;;;;;2.37;65.93;99464.13;4714643;30;20064;-94
2022/12/29 21:29:22;;;;;;;33.22;15.32;;;;;;;2.04;65.86;99405.81;4745783;30;20527;-93
2022/12/29 21:31:50;;;;;;;42.28;16.10;;;;;;;2.41;65.76;99464.41;4740082;30;20146;-95
2022/12/29 21:34:22;;;;;;;;;;;;;;;2.47;65.71;99450.72;4752852;30;20155;-95
2022/12/29 21:36:50;;;;;;;36.97;15.00;;;;;;;1.77;65.63;99335.75;4722982;30;19992;-96
2022/12/29 21:39:26;;;;;;;37.78;16.10;;;;;;;2.31;65.31;99401.19;4719857;30;20112;-96
2022/12/29 21:46:58;;;;;;;49.63;15.70;;;;;;;1.86;65.46;99353.88;4725610;30;20060;-96
2022/12/29 22:16:18;;;;;;;51.05;20.65;;;;;;;2.19;64.47;99362.00;4750074;30;20431;-96
2022/12/29 22:18:48;;;;;;;45.90;20.95;;;;;;;2.47;64.82;99404.03;4737421;30;20060;-94
2022/12/29 22:21:23;;;;;;;49.33;21.00;;;;;;;2.56;64.71;99419.50;4736224;30;20029;-96
2022/12/29 22:23:55;;;;;;;51.20;21.25;;;;;;;2.82;64.54;99449.41;4726351;30;20053;-95
2022/12/29 22:26:24;;;;;;;47.53;20.63;;;;;;;2.62;64.15;99404.19;4741903;30;20055;-93
2022/12/29 22:28:54;;;;;;;47.90;20.27;;;;;;;2.53;64.02;99392.22;4754685;30;20051;-95
2022/12/29 22:31:31;;;;;;;45.72;19.40;;;;;;;2.42;63.89;99355.44;4766429;30;20105;-95
2022/12/29 22:34:17;;;;;;;39.92;17.45;;;;;;;2.34;63.67;99338.66;4753937;30;20035;-95
2022/12/29 22:36:44;;;;;;;45.70;17.83;;;;;;;2.33;63.60;99334.34;4751422;30;20056;-95
2022/12/29 22:39:15;;;;;;;40.15;17.52;;;;;;;2.71;63.90;99377.50;4737575;30;20051;-95
2022/12/29 22:41:55;;;;;;;40.53;17.20;;;;;;;2.40;63.73;99317.94;4755949;30;20060;-95
2022/12/29 22:44:31;;;;;;;40.00;17.05;;;;;;;3.04;63.95;99430.38;4742308;30;20546;-95
2022/12/29 22:47:16;;;;;;;50.25;17.63;;;;;;;2.27;63.73;99299.50;4743856;30;20083;-92
2022/12/29 22:50:05;;;;;;;42.05;16.92;;;;;;;2.83;63.83;99400.53;4739524;29;20071;-95
2022/12/29 22:52:39;;;;;;;46.47;17.83;;;;;;;2.71;63.43;99369.41;4829496;29;20042;-96
2022/12/29 22:55:13;;;;;;;38.65;17.77;;;;;;;2.42;63.53;99331.97;4830219;29;20138;-94
2022/12/29 22:57:45;;;;;;;45.47;18.55;;;;;;;2.41;63.84;99343.03;4815322;29;20106;-95
2022/12/29 23:00:42;;;;;;;51.92;18.23;;;;;;;2.49;63.77;99343.38;4803424;29;20081;-96
2022/12/29 23:03:18;;;;;;;48.53;17.63;;;;;;;2.98;63.53;99399.84;4795912;29;20050;-96
2022/12/29 23:06:00;;;;;;;41.53;17.42;;;;;;;2.91;63.59;99376.81;4845269;29;20050;-96
2022/12/29 23:08:40;;;;;;;44.35;17.85;;;;;;;2.52;63.26;99305.06;4829126;29;20067;-95
2022/12/29 23:11:46;;;;;;;50.45;18.05;;;;;;;2.83;63.29;99354.63;4823810;29;20051;-95
2022/12/29 23:14:16;;;;;;;50.55;19.52;;;;;;;2.66;63.28;99310.00;4800304;29;20087;-95
2022/12/29 23:17:04;;;;;;;45.45;18.75;;;;;;;3.12;63.42;99402.88;4795228;30;20073;-94
2022/12/29 23:19:54;;;;;;;54.53;19.52;;;;;;;2.74;63.30;99361.59;4768945;30;20028;-94
2022/12/29 23:22:37;;;;;;;45.60;18.10;;;;;;;2.33;63.44;99285.78;4788919;30;20026;-96
2022/12/29 23:26:11;;;;;;;43.80;18.15;;;;;;;2.38;63.40;99276.09;4775613;30;20039;-95
2022/12/29 23:28:59;;;;;;;49.72;18.88;;;;;;;3.03;63.19;99372.84;4757999;30;20072;-95
2022/12/29 23:31:56;;;;;;;49.50;18.48;;;;;;;2.74;63.05;99325.69;4771895;30;20051;-96
2022/12/29 23:34:27;;;;;;;45.08;19.40;;;;;;;2.51;63.45;99316.91;4760300;30;20064;-95
2022/12/29 23:37:16;;;;;;;51.42;19.73;;;;;;;2.85;63.27;99375.16;4778512;30;20035;-94
2022/12/29 23:39:44;;;;;;;50.70;18.30;;;;;;;2.56;63.39;99337.75;4779306;30;20136;-95
2022/12/29 23:42:38;;;;;;;45.00;19.63;;;;;;;2.60;63.19;99336.16;4795719;30;20039;-95
2022/12/29 23:45:09;;;;;;;46.75;18.70;;;;;;;2.99;63.10;99393.34;4790425;30;20096;-95
2022/12/29 23:47:42;;;;;;;48.15;18.25;;;;;;;2.58;63.06;99330.19;4770637;29;20068;-94
2022/12/29 23:50:18;;;;;;;45.10;18.60;;;;;;;2.44;62.92;99305.53;4784180;29;20127;-95
2022/12/29 23:52:48;;;;;;;47.20;19.42;;;;;;;2.86;62.83;99366.00;4781028;30;20074;-94
2022/12/29 23:55:19;;;;;;;42.35;18.52;;;;;;;2.54;62.91;99315.59;4795403;30;20044;-94
2022/12/29 23:58:07;;;;;;;47.22;19.48;;;;;;;2.81;63.20;99353.25;4780898;30;20069;-95
